sensor_id;sensor_type;location;lat;lon;timestamp;temperature;humidity
37530;DHT22;23374;52.758;6.872;2023-12-22T00:02:11;6.70;1.00
37530;DHT22;23374;52.758;6.872;2023-12-22T00:04:31;6.70;1.00
37530;DHT22;23374;52.758;6.872;2023-12-22T00:06:51;6.50;99.90
37530;DHT22;23374;52.758;6.872;2023-12-22T00:09:12;6.40;99.90
37530;DHT22;23374;52.758;6.872;2023-12-22T00:11:34;6.30;99.90
37530;DHT22;23374;52.758;6.872;2023-12-22T00:13:54;6.20;99.90
37530;DHT22;23374;52.758;6.872;2023-12-22T00:16:14;6.10;99.90
37530;DHT22;23374;52.758;6.872;2023-12-22T00:18:36;6.00;99.90
37530;DHT22;23374;52.758;6.872;2023-12-22T00:20:56;6.00;99.90
37530;DHT22;23374;52.758;6.872;2023-12-22T00:23:16;6.00;99.90
37530;DHT22;23374;52.758;6.872;2023-12-22T00:25:36;6.00;99.90
37530;DHT22;23374;52.758;6.872;2023-12-22T00:27:57;6.00;98.00
37530;DHT22;23374;52.758;6.872;2023-12-22T00:30:17;6.10;9.70
37530;DHT22;23374;52.758;6.872;2023-12-22T00:32:37;6.20;1.00
37530;DHT22;23374;52.758;6.872;2023-12-22T00:34:58;6.20;1.00
37530;DHT22;23374;52.758;6.872;2023-12-22T00:37:18;6.20;1.00
37530;DHT22;23374;52.758;6.872;2023-12-22T00:39:39;6.20;1.00
37530;DHT22;23374;52.758;6.872;2023-12-22T00:41:59;6.20;1.00
37530;DHT22;23374;52.758;6.872;2023-12-22T00:44:21;6.30;1.00
37530;DHT22;23374;52.758;6.872;2023-12-22T00:46:41;6.30;1.00
37530;DHT22;23374;52.758;6.872;2023-12-22T00:49:01;6.30;1.00
37530;DHT22;23374;52.758;6.872;2023-12-22T00:51:22;6.30;1.00
37530;DHT22;23374;52.758;6.872;2023-12-22T00:53:42;6.30;1.00
37530;DHT22;23374;52.758;6.872;2023-12-22T00:56:03;6.30;1.00
37530;DHT22;23374;52.758;6.872;2023-12-22T00:58:24;6.30;1.00
37530;DHT22;23374;52.758;6.872;2023-12-22T01:00:44;6.30;1.00
37530;DHT22;23374;52.758;6.872;2023-12-22T01:03:04;6.40;1.00
37530;DHT22;23374;52.758;6.872;2023-12-22T01:05:24;6.40;1.00
37530;DHT22;23374;52.758;6.872;2023-12-22T01:07:44;6.40;1.00
37530;DHT22;23374;52.758;6.872;2023-12-22T01:10:06;6.40;1.00
37530;DHT22;23374;52.758;6.872;2023-12-22T01:12:28;6.40;1.00
37530;DHT22;23374;52.758;6.872;2023-12-22T01:14:48;6.50;1.00
37530;DHT22;23374;52.758;6.872;2023-12-22T01:17:12;6.50;1.00
37530;DHT22;23374;52.758;6.872;2023-12-22T01:19:32;6.50;1.00
37530;DHT22;23374;52.758;6.872;2023-12-22T01:21:52;6.50;1.00
37530;DHT22;23374;52.758;6.872;2023-12-22T01:24:13;6.50;1.00
37530;DHT22;23374;52.758;6.872;2023-12-22T01:26:33;6.40;1.00
37530;DHT22;23374;52.758;6.872;2023-12-22T01:28:53;6.40;1.00
37530;DHT22;23374;52.758;6.872;2023-12-22T01:31:13;6.40;1.00
37530;DHT22;23374;52.758;6.872;2023-12-22T01:33:34;6.40;1.00
37530;DHT22;23374;52.758;6.872;2023-12-22T01:35:54;6.40;1.00
37530;DHT22;23374;52.758;6.872;2023-12-22T01:38:14;6.40;1.00
37530;DHT22;23374;52.758;6.872;2023-12-22T01:40:35;6.40;1.00
37530;DHT22;23374;52.758;6.872;2023-12-22T01:42:56;6.50;1.00
37530;DHT22;23374;52.758;6.872;2023-12-22T01:45:16;6.50;1.00
37530;DHT22;23374;52.758;6.872;2023-12-22T01:47:37;6.50;1.00
37530;DHT22;23374;52.758;6.872;2023-12-22T01:49:58;6.50;1.00
37530;DHT22;23374;52.758;6.872;2023-12-22T01:52:19;6.40;99.90
37530;DHT22;23374;52.758;6.872;2023-12-22T01:54:40;6.50;1.00
37530;DHT22;23374;52.758;6.872;2023-12-22T01:57:01;6.50;1.00
37530;DHT22;23374;52.758;6.872;2023-12-22T01:59:22;6.50;1.00
37530;DHT22;23374;52.758;6.872;2023-12-22T02:01:43;6.50;99.90
37530;DHT22;23374;52.758;6.872;2023-12-22T02:04:05;6.40;99.90
37530;DHT22;23374;52.758;6.872;2023-12-22T02:06:26;6.50;99.90
37530;DHT22;23374;52.758;6.872;2023-12-22T02:08:47;6.50;99.90
37530;DHT22;23374;52.758;6.872;2023-12-22T02:11:08;6.50;99.90
37530;DHT22;23374;52.758;6.872;2023-12-22T02:13:28;6.50;99.90
37530;DHT22;23374;52.758;6.872;2023-12-22T02:15:55;6.60;99.90
37530;DHT22;23374;52.758;6.872;2023-12-22T02:18:26;6.50;99.90
37530;DHT22;23374;52.758;6.872;2023-12-22T02:20:47;6.50;99.90
37530;DHT22;23374;52.758;6.872;2023-12-22T02:23:08;6.50;99.90
37530;DHT22;23374;52.758;6.872;2023-12-22T02:25:28;6.50;99.90
37530;DHT22;23374;52.758;6.872;2023-12-22T02:27:52;6.50;99.90
37530;DHT22;23374;52.758;6.872;2023-12-22T02:30:26;6.50;99.90
37530;DHT22;23374;52.758;6.872;2023-12-22T02:32:51;6.50;99.90
37530;DHT22;23374;52.758;6.872;2023-12-22T02:35:20;6.50;99.90
37530;DHT22;23374;52.758;6.872;2023-12-22T02:37:40;6.50;1.00
37530;DHT22;23374;52.758;6.872;2023-12-22T02:40:05;6.50;1.00
37530;DHT22;23374;52.758;6.872;2023-12-22T02:42:27;6.50;1.00
37530;DHT22;23374;52.758;6.872;2023-12-22T02:44:51;6.50;1.00
37530;DHT22;23374;52.758;6.872;2023-12-22T02:47:11;6.50;1.00
37530;DHT22;23374;52.758;6.872;2023-12-22T02:49:31;6.50;1.00
37530;DHT22;23374;52.758;6.872;2023-12-22T02:51:52;6.50;1.00
37530;DHT22;23374;52.758;6.872;2023-12-22T02:54:12;6.50;1.00
37530;DHT22;23374;52.758;6.872;2023-12-22T02:56:33;6.50;1.00
37530;DHT22;23374;52.758;6.872;2023-12-22T02:58:53;6.50;1.00
37530;DHT22;23374;52.758;6.872;2023-12-22T03:01:14;6.50;1.00
37530;DHT22;23374;52.758;6.872;2023-12-22T03:03:34;6.50;1.00
37530;DHT22;23374;52.758;6.872;2023-12-22T03:05:54;6.50;1.00
37530;DHT22;23374;52.758;6.872;2023-12-22T03:08:15;6.60;1.00
37530;DHT22;23374;52.758;6.872;2023-12-22T03:10:35;6.60;1.00
37530;DHT22;23374;52.758;6.872;2023-12-22T03:12:55;6.60;1.00
37530;DHT22;23374;52.758;6.872;2023-12-22T03:15:16;6.70;1.00
37530;DHT22;23374;52.758;6.872;2023-12-22T03:17:36;6.70;1.00
37530;DHT22;23374;52.758;6.872;2023-12-22T03:19:56;6.70;1.00
37530;DHT22;23374;52.758;6.872;2023-12-22T03:22:17;6.70;1.00
37530;DHT22;23374;52.758;6.872;2023-12-22T03:24:37;6.60;1.00
37530;DHT22;23374;52.758;6.872;2023-12-22T03:26:58;6.60;1.00
37530;DHT22;23374;52.758;6.872;2023-12-22T03:29:19;6.60;1.00
37530;DHT22;23374;52.758;6.872;2023-12-22T03:31:39;6.60;1.00
37530;DHT22;23374;52.758;6.872;2023-12-22T03:34:00;6.60;1.00
37530;DHT22;23374;52.758;6.872;2023-12-22T03:36:20;6.50;1.00
37530;DHT22;23374;52.758;6.872;2023-12-22T03:38:41;6.50;1.00
37530;DHT22;23374;52.758;6.872;2023-12-22T03:41:01;6.50;1.00
37530;DHT22;23374;52.758;6.872;2023-12-22T03:43:22;6.50;1.00
37530;DHT22;23374;52.758;6.872;2023-12-22T03:45:42;6.40;1.00
37530;DHT22;23374;52.758;6.872;2023-12-22T03:48:04;6.40;1.00
37530;DHT22;23374;52.758;6.872;2023-12-22T03:50:25;6.40;1.00
37530;DHT22;23374;52.758;6.872;2023-12-22T03:52:45;6.30;1.00
37530;DHT22;23374;52.758;6.872;2023-12-22T03:55:06;6.30;1.00
37530;DHT22;23374;52.758;6.872;2023-12-22T03:57:27;6.30;1.00
37530;DHT22;23374;52.758;6.872;2023-12-22T03:59:48;6.30;3.30
37530;DHT22;23374;52.758;6.872;2023-12-22T04:02:09;6.30;39.40
37530;DHT22;23374;52.758;6.872;2023-12-22T04:04:29;6.20;99.90
37530;DHT22;23374;52.758;6.872;2023-12-22T04:06:50;6.20;99.90
37530;DHT22;23374;52.758;6.872;2023-12-22T04:09:10;6.20;99.90
37530;DHT22;23374;52.758;6.872;2023-12-22T04:11:31;6.20;99.90
37530;DHT22;23374;52.758;6.872;2023-12-22T04:13:51;6.20;99.90
37530;DHT22;23374;52.758;6.872;2023-12-22T04:16:11;6.20;99.90
37530;DHT22;23374;52.758;6.872;2023-12-22T04:18:32;6.20;99.90
37530;DHT22;23374;52.758;6.872;2023-12-22T04:20:52;6.20;99.90
37530;DHT22;23374;52.758;6.872;2023-12-22T04:23:15;6.20;53.90
37530;DHT22;23374;52.758;6.872;2023-12-22T04:25:35;6.20;1.00
37530;DHT22;23374;52.758;6.872;2023-12-22T04:27:56;6.20;1.00
37530;DHT22;23374;52.758;6.872;2023-12-22T04:30:17;6.20;1.00
37530;DHT22;23374;52.758;6.872;2023-12-22T04:32:37;6.20;1.00
37530;DHT22;23374;52.758;6.872;2023-12-22T04:34:57;6.30;1.00
37530;DHT22;23374;52.758;6.872;2023-12-22T04:37:17;6.20;1.00
37530;DHT22;23374;52.758;6.872;2023-12-22T04:39:38;6.20;1.00
37530;DHT22;23374;52.758;6.872;2023-12-22T04:41:58;6.30;1.00
37530;DHT22;23374;52.758;6.872;2023-12-22T04:44:18;6.30;1.00
37530;DHT22;23374;52.758;6.872;2023-12-22T04:46:38;6.30;1.00
37530;DHT22;23374;52.758;6.872;2023-12-22T04:48:59;6.30;1.00
37530;DHT22;23374;52.758;6.872;2023-12-22T04:51:19;6.20;1.00
37530;DHT22;23374;52.758;6.872;2023-12-22T04:53:39;6.20;1.00
37530;DHT22;23374;52.758;6.872;2023-12-22T04:55:59;6.20;1.00
37530;DHT22;23374;52.758;6.872;2023-12-22T04:58:20;6.20;1.00
37530;DHT22;23374;52.758;6.872;2023-12-22T05:00:40;6.20;1.00
37530;DHT22;23374;52.758;6.872;2023-12-22T05:03:00;6.20;1.00
37530;DHT22;23374;52.758;6.872;2023-12-22T05:05:21;6.20;1.00
37530;DHT22;23374;52.758;6.872;2023-12-22T05:07:41;6.20;1.00
37530;DHT22;23374;52.758;6.872;2023-12-22T05:10:02;6.20;1.00
37530;DHT22;23374;52.758;6.872;2023-12-22T05:12:23;6.20;1.00
37530;DHT22;23374;52.758;6.872;2023-12-22T05:14:43;6.20;1.00
37530;DHT22;23374;52.758;6.872;2023-12-22T05:17:04;6.30;1.00
37530;DHT22;23374;52.758;6.872;2023-12-22T05:19:25;6.40;1.00
37530;DHT22;23374;52.758;6.872;2023-12-22T05:21:45;6.40;1.00
37530;DHT22;23374;52.758;6.872;2023-12-22T05:24:05;6.50;1.00
37530;DHT22;23374;52.758;6.872;2023-12-22T05:26:25;6.50;1.00
37530;DHT22;23374;52.758;6.872;2023-12-22T05:28:50;6.60;1.00
37530;DHT22;23374;52.758;6.872;2023-12-22T05:31:10;6.70;99.90
37530;DHT22;23374;52.758;6.872;2023-12-22T05:33:30;6.70;99.90
37530;DHT22;23374;52.758;6.872;2023-12-22T05:35:52;6.70;99.90
37530;DHT22;23374;52.758;6.872;2023-12-22T05:38:12;6.80;99.90
37530;DHT22;23374;52.758;6.872;2023-12-22T05:40:33;6.80;1.00
37530;DHT22;23374;52.758;6.872;2023-12-22T05:42:53;6.80;99.90
37530;DHT22;23374;52.758;6.872;2023-12-22T05:45:15;6.80;99.90
37530;DHT22;23374;52.758;6.872;2023-12-22T05:47:35;6.80;99.90
37530;DHT22;23374;52.758;6.872;2023-12-22T05:49:56;6.80;99.90
37530;DHT22;23374;52.758;6.872;2023-12-22T05:52:16;6.90;99.90
37530;DHT22;23374;52.758;6.872;2023-12-22T05:54:38;6.90;1.00
37530;DHT22;23374;52.758;6.872;2023-12-22T05:56:58;6.90;1.00
37530;DHT22;23374;52.758;6.872;2023-12-22T05:59:19;6.90;1.00
37530;DHT22;23374;52.758;6.872;2023-12-22T06:01:39;6.90;1.00
37530;DHT22;23374;52.758;6.872;2023-12-22T06:04:00;6.90;1.00
37530;DHT22;23374;52.758;6.872;2023-12-22T06:06:21;6.90;1.00
37530;DHT22;23374;52.758;6.872;2023-12-22T06:08:41;6.90;1.00
37530;DHT22;23374;52.758;6.872;2023-12-22T06:11:02;6.90;1.00
37530;DHT22;23374;52.758;6.872;2023-12-22T06:13:23;6.90;1.00
37530;DHT22;23374;52.758;6.872;2023-12-22T06:15:44;6.90;1.00
37530;DHT22;23374;52.758;6.872;2023-12-22T06:18:05;6.90;1.00
37530;DHT22;23374;52.758;6.872;2023-12-22T06:20:25;6.90;1.00
37530;DHT22;23374;52.758;6.872;2023-12-22T06:22:46;6.90;1.00
37530;DHT22;23374;52.758;6.872;2023-12-22T06:25:06;6.90;1.00
37530;DHT22;23374;52.758;6.872;2023-12-22T06:27:27;6.90;1.00
37530;DHT22;23374;52.758;6.872;2023-12-22T06:29:47;6.90;1.00
37530;DHT22;23374;52.758;6.872;2023-12-22T06:32:08;7.00;1.00
37530;DHT22;23374;52.758;6.872;2023-12-22T06:34:29;7.00;1.00
37530;DHT22;23374;52.758;6.872;2023-12-22T06:36:50;7.00;1.00
37530;DHT22;23374;52.758;6.872;2023-12-22T06:39:10;7.00;1.00
37530;DHT22;23374;52.758;6.872;2023-12-22T06:41:31;7.00;1.00
37530;DHT22;23374;52.758;6.872;2023-12-22T06:43:52;7.00;1.00
37530;DHT22;23374;52.758;6.872;2023-12-22T06:46:16;7.00;1.00
37530;DHT22;23374;52.758;6.872;2023-12-22T06:48:36;7.00;99.90
37530;DHT22;23374;52.758;6.872;2023-12-22T06:50:57;7.00;99.90
37530;DHT22;23374;52.758;6.872;2023-12-22T06:53:18;7.10;99.90
37530;DHT22;23374;52.758;6.872;2023-12-22T06:55:38;7.10;99.90
37530;DHT22;23374;52.758;6.872;2023-12-22T06:57:58;7.10;99.90
37530;DHT22;23374;52.758;6.872;2023-12-22T07:00:19;7.10;99.90
37530;DHT22;23374;52.758;6.872;2023-12-22T07:02:39;7.10;99.90
37530;DHT22;23374;52.758;6.872;2023-12-22T07:05:36;7.10;99.90
37530;DHT22;23374;52.758;6.872;2023-12-22T07:07:57;7.10;99.90
37530;DHT22;23374;52.758;6.872;2023-12-22T07:10:17;7.10;99.90
37530;DHT22;23374;52.758;6.872;2023-12-22T07:12:38;7.10;99.90
37530;DHT22;23374;52.758;6.872;2023-12-22T07:15:01;7.10;99.90
37530;DHT22;23374;52.758;6.872;2023-12-22T07:17:22;7.10;99.90
37530;DHT22;23374;52.758;6.872;2023-12-22T07:19:42;7.10;99.90
37530;DHT22;23374;52.758;6.872;2023-12-22T07:22:02;7.10;99.90
37530;DHT22;23374;52.758;6.872;2023-12-22T07:24:24;7.20;99.90
37530;DHT22;23374;52.758;6.872;2023-12-22T07:26:44;7.10;99.90
37530;DHT22;23374;52.758;6.872;2023-12-22T07:29:05;7.20;99.90
37530;DHT22;23374;52.758;6.872;2023-12-22T07:31:25;7.20;99.90
37530;DHT22;23374;52.758;6.872;2023-12-22T07:33:45;7.20;99.90
37530;DHT22;23374;52.758;6.872;2023-12-22T07:36:07;7.20;99.90
37530;DHT22;23374;52.758;6.872;2023-12-22T07:38:28;7.20;1.00
37530;DHT22;23374;52.758;6.872;2023-12-22T07:40:48;7.20;1.00
37530;DHT22;23374;52.758;6.872;2023-12-22T07:43:09;7.20;1.00
37530;DHT22;23374;52.758;6.872;2023-12-22T07:45:30;7.20;1.00
37530;DHT22;23374;52.758;6.872;2023-12-22T07:47:50;7.20;1.00
37530;DHT22;23374;52.758;6.872;2023-12-22T07:50:12;7.20;1.00
37530;DHT22;23374;52.758;6.872;2023-12-22T07:52:32;7.20;1.00
37530;DHT22;23374;52.758;6.872;2023-12-22T07:54:53;7.20;1.00
37530;DHT22;23374;52.758;6.872;2023-12-22T07:57:14;7.20;1.00
37530;DHT22;23374;52.758;6.872;2023-12-22T07:59:34;7.20;1.00
37530;DHT22;23374;52.758;6.872;2023-12-22T08:01:54;7.20;1.00
37530;DHT22;23374;52.758;6.872;2023-12-22T08:04:15;7.20;1.00
37530;DHT22;23374;52.758;6.872;2023-12-22T08:06:35;7.20;1.00
37530;DHT22;23374;52.758;6.872;2023-12-22T08:08:56;7.20;1.00
37530;DHT22;23374;52.758;6.872;2023-12-22T08:11:16;7.20;1.00
37530;DHT22;23374;52.758;6.872;2023-12-22T08:13:37;7.20;1.00
37530;DHT22;23374;52.758;6.872;2023-12-22T08:15:58;7.20;1.00
37530;DHT22;23374;52.758;6.872;2023-12-22T08:18:18;7.20;1.00
37530;DHT22;23374;52.758;6.872;2023-12-22T08:20:39;7.20;1.00
37530;DHT22;23374;52.758;6.872;2023-12-22T08:22:59;7.20;1.00
37530;DHT22;23374;52.758;6.872;2023-12-22T08:25:20;7.20;31.70
37530;DHT22;23374;52.758;6.872;2023-12-22T08:27:41;7.20;69.60
37530;DHT22;23374;52.758;6.872;2023-12-22T08:30:02;7.20;99.90
37530;DHT22;23374;52.758;6.872;2023-12-22T08:32:23;7.20;99.90
37530;DHT22;23374;52.758;6.872;2023-12-22T08:34:43;7.20;99.90
37530;DHT22;23374;52.758;6.872;2023-12-22T08:37:03;7.20;99.90
37530;DHT22;23374;52.758;6.872;2023-12-22T08:39:24;7.20;99.90
37530;DHT22;23374;52.758;6.872;2023-12-22T08:41:45;7.20;1.00
37530;DHT22;23374;52.758;6.872;2023-12-22T08:44:06;7.20;1.00
37530;DHT22;23374;52.758;6.872;2023-12-22T08:46:27;7.20;1.00
37530;DHT22;23374;52.758;6.872;2023-12-22T08:48:47;7.20;1.00
37530;DHT22;23374;52.758;6.872;2023-12-22T08:51:08;7.20;1.00
37530;DHT22;23374;52.758;6.872;2023-12-22T08:53:29;7.20;1.00
37530;DHT22;23374;52.758;6.872;2023-12-22T08:55:53;7.20;1.00
37530;DHT22;23374;52.758;6.872;2023-12-22T08:58:14;7.20;1.00
37530;DHT22;23374;52.758;6.872;2023-12-22T09:00:34;7.20;1.00
37530;DHT22;23374;52.758;6.872;2023-12-22T09:02:54;7.20;1.00
37530;DHT22;23374;52.758;6.872;2023-12-22T09:05:15;7.20;1.00
37530;DHT22;23374;52.758;6.872;2023-12-22T09:07:37;7.20;1.00
37530;DHT22;23374;52.758;6.872;2023-12-22T09:09:57;7.10;1.00
37530;DHT22;23374;52.758;6.872;2023-12-22T09:12:18;7.10;99.90
37530;DHT22;23374;52.758;6.872;2023-12-22T09:14:38;7.10;99.90
37530;DHT22;23374;52.758;6.872;2023-12-22T09:16:58;7.10;99.90
37530;DHT22;23374;52.758;6.872;2023-12-22T09:19:18;7.10;99.90
37530;DHT22;23374;52.758;6.872;2023-12-22T09:21:39;7.10;99.90
37530;DHT22;23374;52.758;6.872;2023-12-22T09:23:59;7.10;99.90
37530;DHT22;23374;52.758;6.872;2023-12-22T09:26:19;7.10;99.90
37530;DHT22;23374;52.758;6.872;2023-12-22T09:28:42;7.20;99.90
37530;DHT22;23374;52.758;6.872;2023-12-22T09:31:03;7.20;99.90
37530;DHT22;23374;52.758;6.872;2023-12-22T09:33:25;7.30;99.90
37530;DHT22;23374;52.758;6.872;2023-12-22T09:35:46;7.30;99.90
37530;DHT22;23374;52.758;6.872;2023-12-22T09:38:07;7.30;99.90
37530;DHT22;23374;52.758;6.872;2023-12-22T09:40:28;7.30;99.90
37530;DHT22;23374;52.758;6.872;2023-12-22T09:42:49;7.30;99.90
37530;DHT22;23374;52.758;6.872;2023-12-22T09:45:13;7.40;99.90
37530;DHT22;23374;52.758;6.872;2023-12-22T09:47:37;7.40;99.90
37530;DHT22;23374;52.758;6.872;2023-12-22T09:49:59;7.40;99.90
37530;DHT22;23374;52.758;6.872;2023-12-22T09:52:20;7.40;99.90
37530;DHT22;23374;52.758;6.872;2023-12-22T09:54:43;7.40;99.90
37530;DHT22;23374;52.758;6.872;2023-12-22T09:57:05;7.40;99.90
37530;DHT22;23374;52.758;6.872;2023-12-22T09:59:27;7.50;99.90
37530;DHT22;23374;52.758;6.872;2023-12-22T10:01:49;7.50;99.90
37530;DHT22;23374;52.758;6.872;2023-12-22T10:04:12;7.40;99.90
37530;DHT22;23374;52.758;6.872;2023-12-22T10:06:33;7.50;99.90
37530;DHT22;23374;52.758;6.872;2023-12-22T10:08:53;7.40;99.90
37530;DHT22;23374;52.758;6.872;2023-12-22T10:11:15;7.40;99.90
37530;DHT22;23374;52.758;6.872;2023-12-22T10:13:37;7.40;99.90
37530;DHT22;23374;52.758;6.872;2023-12-22T10:16:00;7.40;99.90
37530;DHT22;23374;52.758;6.872;2023-12-22T10:18:21;7.40;99.90
37530;DHT22;23374;52.758;6.872;2023-12-22T10:20:42;7.40;99.90
37530;DHT22;23374;52.758;6.872;2023-12-22T10:23:04;7.40;99.90
37530;DHT22;23374;52.758;6.872;2023-12-22T10:25:28;7.40;99.90
37530;DHT22;23374;52.758;6.872;2023-12-22T10:27:52;7.40;1.00
37530;DHT22;23374;52.758;6.872;2023-12-22T10:30:14;7.30;1.00
37530;DHT22;23374;52.758;6.872;2023-12-22T10:32:40;7.30;1.00
37530;DHT22;23374;52.758;6.872;2023-12-22T10:35:04;7.30;1.00
37530;DHT22;23374;52.758;6.872;2023-12-22T10:37:25;7.30;1.00
37530;DHT22;23374;52.758;6.872;2023-12-22T10:39:45;7.30;1.00
37530;DHT22;23374;52.758;6.872;2023-12-22T10:42:09;7.30;1.00
37530;DHT22;23374;52.758;6.872;2023-12-22T10:44:30;7.30;1.00
37530;DHT22;23374;52.758;6.872;2023-12-22T10:46:51;7.20;1.00
37530;DHT22;23374;52.758;6.872;2023-12-22T10:49:12;7.20;1.00
37530;DHT22;23374;52.758;6.872;2023-12-22T10:51:33;7.20;7.80
37530;DHT22;23374;52.758;6.872;2023-12-22T10:53:53;7.20;73.10
37530;DHT22;23374;52.758;6.872;2023-12-22T10:56:14;7.20;99.90
37530;DHT22;23374;52.758;6.872;2023-12-22T10:58:35;7.10;99.90
37530;DHT22;23374;52.758;6.872;2023-12-22T11:00:56;7.10;99.90
37530;DHT22;23374;52.758;6.872;2023-12-22T11:03:18;7.10;99.90
37530;DHT22;23374;52.758;6.872;2023-12-22T11:05:45;7.10;1.00
37530;DHT22;23374;52.758;6.872;2023-12-22T11:08:08;7.10;1.00
37530;DHT22;23374;52.758;6.872;2023-12-22T11:10:32;7.10;1.00
37530;DHT22;23374;52.758;6.872;2023-12-22T11:12:56;7.10;1.00
37530;DHT22;23374;52.758;6.872;2023-12-22T11:15:18;7.10;1.00
37530;DHT22;23374;52.758;6.872;2023-12-22T11:17:39;7.10;1.00
37530;DHT22;23374;52.758;6.872;2023-12-22T11:20:03;7.10;1.00
37530;DHT22;23374;52.758;6.872;2023-12-22T11:22:25;7.10;1.00
37530;DHT22;23374;52.758;6.872;2023-12-22T11:24:48;7.10;1.00
37530;DHT22;23374;52.758;6.872;2023-12-22T11:27:12;7.20;1.00
37530;DHT22;23374;52.758;6.872;2023-12-22T11:29:33;7.20;1.00
37530;DHT22;23374;52.758;6.872;2023-12-22T11:31:55;7.20;1.00
37530;DHT22;23374;52.758;6.872;2023-12-22T11:34:18;7.20;99.90
37530;DHT22;23374;52.758;6.872;2023-12-22T11:36:41;7.30;99.90
37530;DHT22;23374;52.758;6.872;2023-12-22T11:39:03;7.30;99.90
37530;DHT22;23374;52.758;6.872;2023-12-22T11:41:28;7.30;99.90
37530;DHT22;23374;52.758;6.872;2023-12-22T11:43:51;7.30;99.90
37530;DHT22;23374;52.758;6.872;2023-12-22T11:46:11;7.40;99.90
37530;DHT22;23374;52.758;6.872;2023-12-22T11:48:32;7.40;99.90
37530;DHT22;23374;52.758;6.872;2023-12-22T11:50:53;7.40;99.90
37530;DHT22;23374;52.758;6.872;2023-12-22T11:53:30;7.40;99.90
37530;DHT22;23374;52.758;6.872;2023-12-22T11:56:51;7.50;99.90
37530;DHT22;23374;52.758;6.872;2023-12-22T11:59:11;7.50;99.90
37530;DHT22;23374;52.758;6.872;2023-12-22T12:01:38;7.50;99.90
37530;DHT22;23374;52.758;6.872;2023-12-22T12:04:02;7.50;99.90
37530;DHT22;23374;52.758;6.872;2023-12-22T12:06:41;7.50;99.90
37530;DHT22;23374;52.758;6.872;2023-12-22T12:09:05;7.50;99.90
37530;DHT22;23374;52.758;6.872;2023-12-22T12:12:20;7.50;99.90
37530;DHT22;23374;52.758;6.872;2023-12-22T12:14:43;7.50;1.00
37530;DHT22;23374;52.758;6.872;2023-12-22T12:17:08;7.50;1.00
37530;DHT22;23374;52.758;6.872;2023-12-22T12:19:29;7.50;1.00
37530;DHT22;23374;52.758;6.872;2023-12-22T12:21:50;7.50;1.00
37530;DHT22;23374;52.758;6.872;2023-12-22T12:24:11;7.50;1.00
37530;DHT22;23374;52.758;6.872;2023-12-22T12:26:35;7.60;1.00
37530;DHT22;23374;52.758;6.872;2023-12-22T12:28:56;7.60;1.00
37530;DHT22;23374;52.758;6.872;2023-12-22T12:31:17;7.60;1.00
37530;DHT22;23374;52.758;6.872;2023-12-22T12:33:38;7.60;1.00
37530;DHT22;23374;52.758;6.872;2023-12-22T12:36:00;7.60;1.00
37530;DHT22;23374;52.758;6.872;2023-12-22T12:38:33;7.60;1.00
37530;DHT22;23374;52.758;6.872;2023-12-22T12:40:57;7.60;1.00
37530;DHT22;23374;52.758;6.872;2023-12-22T12:43:18;7.60;1.00
37530;DHT22;23374;52.758;6.872;2023-12-22T12:45:40;7.60;1.00
37530;DHT22;23374;52.758;6.872;2023-12-22T12:48:03;7.60;1.00
37530;DHT22;23374;52.758;6.872;2023-12-22T12:50:23;7.60;1.00
37530;DHT22;23374;52.758;6.872;2023-12-22T12:52:44;7.60;1.00
37530;DHT22;23374;52.758;6.872;2023-12-22T12:55:05;7.60;1.00
37530;DHT22;23374;52.758;6.872;2023-12-22T12:57:26;7.60;1.00
37530;DHT22;23374;52.758;6.872;2023-12-22T12:59:50;7.60;1.00
37530;DHT22;23374;52.758;6.872;2023-12-22T13:02:11;7.60;1.00
37530;DHT22;23374;52.758;6.872;2023-12-22T13:04:37;7.70;1.00
37530;DHT22;23374;52.758;6.872;2023-12-22T13:06:58;7.70;1.00
37530;DHT22;23374;52.758;6.872;2023-12-22T13:09:19;7.70;1.00
37530;DHT22;23374;52.758;6.872;2023-12-22T13:11:40;7.60;1.00
37530;DHT22;23374;52.758;6.872;2023-12-22T13:14:02;7.60;37.80
37530;DHT22;23374;52.758;6.872;2023-12-22T13:16:27;7.60;99.90
37530;DHT22;23374;52.758;6.872;2023-12-22T13:18:49;7.60;99.90
37530;DHT22;23374;52.758;6.872;2023-12-22T13:21:10;7.60;99.90
37530;DHT22;23374;52.758;6.872;2023-12-22T13:23:30;7.60;99.90
37530;DHT22;23374;52.758;6.872;2023-12-22T13:25:51;7.60;99.90
37530;DHT22;23374;52.758;6.872;2023-12-22T13:28:11;7.60;99.90
37530;DHT22;23374;52.758;6.872;2023-12-22T13:30:37;7.60;99.90
37530;DHT22;23374;52.758;6.872;2023-12-22T13:33:00;7.60;99.90
37530;DHT22;23374;52.758;6.872;2023-12-22T13:35:24;7.60;99.90
37530;DHT22;23374;52.758;6.872;2023-12-22T13:37:44;7.60;99.90
37530;DHT22;23374;52.758;6.872;2023-12-22T13:40:08;7.60;92.20
37530;DHT22;23374;52.758;6.872;2023-12-22T13:42:29;7.60;99.90
37530;DHT22;23374;52.758;6.872;2023-12-22T13:44:50;7.60;78.80
37530;DHT22;23374;52.758;6.872;2023-12-22T13:47:18;7.60;95.80
37530;DHT22;23374;52.758;6.872;2023-12-22T13:49:39;7.60;82.50
37530;DHT22;23374;52.758;6.872;2023-12-22T13:51:59;7.60;26.60
37530;DHT22;23374;52.758;6.872;2023-12-22T13:54:20;7.60;1.60
37530;DHT22;23374;52.758;6.872;2023-12-22T13:56:40;7.60;1.00
37530;DHT22;23374;52.758;6.872;2023-12-22T13:59:02;7.60;1.00
37530;DHT22;23374;52.758;6.872;2023-12-22T14:01:23;7.60;31.30
37530;DHT22;23374;52.758;6.872;2023-12-22T14:03:44;7.60;85.20
37530;DHT22;23374;52.758;6.872;2023-12-22T14:06:05;7.60;99.90
37530;DHT22;23374;52.758;6.872;2023-12-22T14:08:28;7.60;99.90
37530;DHT22;23374;52.758;6.872;2023-12-22T14:10:49;7.60;99.90
37530;DHT22;23374;52.758;6.872;2023-12-22T14:13:09;7.60;99.90
37530;DHT22;23374;52.758;6.872;2023-12-22T14:15:29;7.60;99.90
37530;DHT22;23374;52.758;6.872;2023-12-22T14:17:49;7.60;99.90
37530;DHT22;23374;52.758;6.872;2023-12-22T14:20:10;7.60;1.00
37530;DHT22;23374;52.758;6.872;2023-12-22T14:22:30;7.50;1.00
37530;DHT22;23374;52.758;6.872;2023-12-22T14:24:50;7.50;1.00
37530;DHT22;23374;52.758;6.872;2023-12-22T14:27:11;7.50;18.00
37530;DHT22;23374;52.758;6.872;2023-12-22T14:29:31;7.50;90.60
37530;DHT22;23374;52.758;6.872;2023-12-22T14:31:53;7.40;99.90
37530;DHT22;23374;52.758;6.872;2023-12-22T14:34:14;7.40;99.90
37530;DHT22;23374;52.758;6.872;2023-12-22T14:36:34;7.40;99.90
37530;DHT22;23374;52.758;6.872;2023-12-22T14:38:55;7.40;99.90
37530;DHT22;23374;52.758;6.872;2023-12-22T14:41:15;7.40;99.90
37530;DHT22;23374;52.758;6.872;2023-12-22T14:43:35;7.40;99.90
37530;DHT22;23374;52.758;6.872;2023-12-22T14:45:56;7.40;99.90
37530;DHT22;23374;52.758;6.872;2023-12-22T14:48:16;7.40;99.90
37530;DHT22;23374;52.758;6.872;2023-12-22T14:50:36;7.40;99.90
37530;DHT22;23374;52.758;6.872;2023-12-22T14:52:56;7.40;1.00
37530;DHT22;23374;52.758;6.872;2023-12-22T14:55:17;7.40;1.00
37530;DHT22;23374;52.758;6.872;2023-12-22T14:57:37;7.40;1.00
37530;DHT22;23374;52.758;6.872;2023-12-22T14:59:57;7.50;1.00
37530;DHT22;23374;52.758;6.872;2023-12-22T15:02:18;7.50;99.90
37530;DHT22;23374;52.758;6.872;2023-12-22T15:04:39;7.50;99.90
37530;DHT22;23374;52.758;6.872;2023-12-22T15:06:59;7.50;1.00
37530;DHT22;23374;52.758;6.872;2023-12-22T15:09:20;7.60;1.00
37530;DHT22;23374;52.758;6.872;2023-12-22T15:11:42;7.60;1.00
37530;DHT22;23374;52.758;6.872;2023-12-22T15:14:03;7.60;1.00
37530;DHT22;23374;52.758;6.872;2023-12-22T15:16:23;7.60;1.00
37530;DHT22;23374;52.758;6.872;2023-12-22T15:18:44;7.60;1.00